Time;durP1;ratioP1;P1;durP2;ratioP2;P2;SDS_P1;SDS_P2;PMS_P1;PMS_P2;Temp;Humidity;BMP_temperature;BMP_pressure;BME280_temperature;BME280_humidity;BME280_pressure;Samples;Min_cycle;Max_cycle;Signal;HPM_P1;HPM_P2
2022/10/11 00:02:09;;;;;;;1.40;1.27;;;;;;;19.38;45.41;95754.03;5108756;28;20441;-69
2022/10/11 00:04:37;;;;;;;2.70;1.53;;;;;;;19.59;44.95;95744.66;5109452;28;20432;-72
2022/10/11 00:07:04;;;;;;;0.37;0.37;;;;;;;19.62;45.01;95750.19;5108272;28;21206;-72
2022/10/11 00:09:31;;;;;;;0.70;0.70;;;;;;;19.52;45.53;95745.03;5111651;28;20500;-70
2022/10/11 00:11:58;;;;;;;0.57;0.20;;;;;;;19.48;45.44;95759.97;5112028;28;20464;-69
2022/10/11 00:14:26;;;;;;;0.70;0.70;;;;;;;19.58;45.15;95759.03;5112167;28;20538;-70
2022/10/11 00:16:53;;;;;;;4.47;2.23;;;;;;;19.67;45.04;95751.97;5112531;28;20471;-74
2022/10/11 00:19:20;;;;;;;0.73;0.73;;;;;;;19.46;45.36;95751.50;5112341;28;20512;-72
2022/10/11 00:21:47;;;;;;;1.57;1.47;;;;;;;19.55;45.14;95749.75;5112019;28;20448;-68
2022/10/11 00:24:14;;;;;;;2.30;1.57;;;;;;;19.43;45.64;95745.97;5097971;28;20465;-71
2022/10/11 00:26:42;;;;;;;0.50;0.50;;;;;;;19.56;45.13;95750.56;5111984;28;20998;-67
2022/10/11 00:29:12;;;;;;;0.73;0.73;;;;;;;19.68;45.07;95745.56;5097880;28;20445;-72
2022/10/11 00:31:39;;;;;;;1.80;0.70;;;;;;;19.63;44.94;95741.13;5111682;28;21008;-72
2022/10/11 00:34:07;;;;;;;3.00;0.90;;;;;;;19.49;45.47;95752.81;5112123;28;20486;-66
2022/10/11 00:36:34;;;;;;;0.50;0.50;;;;;;;19.14;46.25;95744.25;5092240;28;20877;-70
2022/10/11 00:39:01;;;;;;;0.30;0.30;;;;;;;19.44;45.67;95731.59;5104085;28;20454;-70
2022/10/11 00:41:28;;;;;;;1.47;1.30;;;;;;;19.31;45.66;95742.94;5102040;28;20437;-68
2022/10/11 00:44:16;;;;;;;1.50;1.03;;;;;;;19.57;45.42;95744.16;5107348;28;20554;-71
2022/10/11 00:46:59;;;;;;;6.23;0.97;;;;;;;19.51;45.46;95738.13;5100792;28;20437;-70
2022/10/11 00:49:38;;;;;;;1.23;1.13;;;;;;;19.66;45.27;95732.56;5092175;28;20445;-68
2022/10/11 00:52:14;;;;;;;1.00;1.00;;;;;;;19.73;45.24;95729.50;5095098;28;20468;-70
2022/10/11 00:54:44;;;;;;;1.03;1.03;;;;;;;19.68;45.38;95722.44;5110463;28;20508;-69
2022/10/11 00:57:15;;;;;;;1.23;1.17;;;;;;;19.36;46.06;95729.63;5107837;28;20528;-70
2022/10/11 00:59:47;;;;;;;0.97;0.97;;;;;;;19.04;47.02;95732.97;5101815;28;20436;-71
2022/10/11 01:02:15;;;;;;;1.13;0.67;;;;;;;19.10;46.85;95732.59;5108338;28;20499;-66
2022/10/11 01:04:42;;;;;;;0.40;0.40;;;;;;;19.43;46.26;95735.34;5100303;28;20443;-67
2022/10/11 01:07:10;;;;;;;7.23;2.30;;;;;;;19.45;46.32;95733.19;5111304;27;20441;-68
2022/10/11 01:09:37;;;;;;;0.50;0.50;;;;;;;19.46;46.23;95734.75;5104061;28;20452;-68
2022/10/11 01:12:11;;;;;;;1.27;0.73;;;;;;;19.27;46.58;95726.00;5109139;28;20489;-72
2022/10/11 01:14:44;;;;;;;0.60;0.60;;;;;;;19.30;46.49;95736.03;5098888;28;20436;-68
2022/10/11 01:17:34;;;;;;;1.53;1.43;;;;;;;19.26;46.57;95735.03;5111020;28;20531;-67
2022/10/11 01:20:20;;;;;;;0.93;0.57;;;;;;;18.93;47.28;95716.41;5101332;28;21024;-71
2022/10/11 01:23:18;;;;;;;0.83;0.80;;;;;;;18.76;47.78;95732.03;5104919;28;21053;-70
2022/10/11 01:26:10;;;;;;;3.50;1.33;;;;;;;18.67;48.29;95724.97;5105042;28;20437;-68
2022/10/11 01:28:57;;;;;;;0.70;0.70;;;;;;;18.58;48.19;95724.84;5101492;28;21064;-65
2022/10/11 01:31:30;;;;;;;4.60;1.23;;;;;;;18.71;48.27;95726.00;5110899;28;20444;-73
2022/10/11 01:34:25;;;;;;;0.30;0.30;;;;;;;18.77;47.94;95723.00;5110344;28;20475;-67
2022/10/11 01:37:18;;;;;;;1.07;1.00;;;;;;;18.63;48.50;95716.81;5082950;28;20460;-71
2022/10/11 01:39:50;;;;;;;1.47;1.07;;;;;;;18.64;48.31;95717.59;5104477;28;20446;-70
2022/10/11 01:42:19;;;;;;;1.87;1.77;;;;;;;18.73;48.17;95700.75;5092367;28;20964;-67
2022/10/11 01:44:49;;;;;;;1.20;1.20;;;;;;;18.89;47.84;95706.63;5101171;28;20461;-68
2022/10/11 01:47:19;;;;;;;1.33;1.23;;;;;;;18.75;48.25;95714.53;5105615;28;20950;-69
2022/10/11 01:49:55;;;;;;;1.17;1.13;;;;;;;18.64;47.92;95710.44;5110467;28;20458;-67
2022/10/11 01:52:24;;;;;;;1.00;1.00;;;;;;;18.70;48.07;95717.22;5095234;28;20512;-67
2022/10/11 01:55:14;;;;;;;1.20;1.07;;;;;;;18.44;48.88;95713.34;5109478;28;20523;-69
2022/10/11 01:58:05;;;;;;;0.60;0.60;;;;;;;18.57;48.62;95717.97;5090073;28;20434;-70
2022/10/11 02:01:01;;;;;;;0.33;0.33;;;;;;;18.51;48.69;95721.75;5089436;28;20876;-69
2022/10/11 02:03:35;;;;;;;2.10;1.23;;;;;;;18.72;48.17;95719.63;5099106;28;20854;-67
2022/10/11 02:06:10;;;;;;;1.00;0.90;;;;;;;18.72;48.77;95709.78;5096711;28;20868;-70
2022/10/11 02:08:59;;;;;;;1.07;0.97;;;;;;;18.33;49.01;95722.47;5096442;28;20493;-70
2022/10/11 02:11:35;;;;;;;0.77;0.77;;;;;;;18.39;48.95;95716.03;5089450;28;20898;-69
2022/10/11 02:14:31;;;;;;;2.23;1.70;;;;;;;18.17;49.31;95721.84;5106219;28;20499;-70
2022/10/11 02:17:06;;;;;;;0.30;0.30;;;;;;;18.21;49.53;95720.22;5095883;28;20568;-71
2022/10/11 02:19:41;;;;;;;0.47;0.47;;;;;;;18.32;49.26;95710.25;5104170;28;20462;-66
2022/10/11 02:22:36;;;;;;;1.53;1.43;;;;;;;18.42;49.20;95710.19;5103092;28;20450;-68
2022/10/11 02:25:08;;;;;;;2.13;1.03;;;;;;;18.29;49.14;95710.03;5097650;28;20459;-69
2022/10/11 02:27:39;;;;;;;1.33;1.23;;;;;;;18.17;49.46;95723.72;5108148;28;20443;-69
2022/10/11 02:30:08;;;;;;;0.80;0.80;;;;;;;18.43;48.85;95710.97;5098275;28;20432;-67
2022/10/11 02:32:38;;;;;;;1.53;1.43;;;;;;;18.31;49.04;95708.69;5109033;27;20460;-70
2022/10/11 02:35:05;;;;;;;2.23;1.27;;;;;;;18.74;48.45;95709.50;5109850;28;21251;-71
2022/10/11 02:37:38;;;;;;;0.60;0.60;;;;;;;18.89;48.16;95698.66;5110061;28;20440;-72
2022/10/11 02:40:09;;;;;;;0.40;0.40;;;;;;;18.83;47.98;95707.78;5108170;28;20490;-69
2022/10/11 02:42:43;;;;;;;0.93;0.80;;;;;;;18.91;47.71;95705.28;5095235;28;20436;-69
2022/10/11 02:45:16;;;;;;;0.50;0.50;;;;;;;18.34;49.06;95704.69;5109451;28;20465;-67
2022/10/11 02:47:44;;;;;;;1.37;0.87;;;;;;;18.46;48.94;95711.19;5095114;28;20439;-70
2022/10/11 02:50:12;;;;;;;1.53;1.43;;;;;;;18.39;48.73;95684.19;5096544;28;20503;-65
2022/10/11 02:52:39;;;;;;;0.80;0.70;;;;;;;18.78;48.44;95692.72;5100571;28;20488;-66
2022/10/11 02:55:06;;;;;;;1.93;1.83;;;;;;;18.90;47.97;95694.94;5115935;28;20885;-72
2022/10/11 02:57:33;;;;;;;1.43;1.33;;;;;;;18.83;47.89;95678.59;5089648;28;21030;-70
2022/10/11 03:00:00;;;;;;;1.13;1.03;;;;;;;19.11;47.38;95694.34;5102174;28;20448;-70
2022/10/11 03:02:27;;;;;;;1.77;1.67;;;;;;;19.10;47.44;95694.66;5094664;28;20440;-66
2022/10/11 03:04:54;;;;;;;0.40;0.33;;;;;;;19.08;47.55;95684.31;5109682;28;20476;-68
2022/10/11 03:07:21;;;;;;;1.77;1.67;;;;;;;19.16;47.44;95678.31;5094865;28;20434;-67
2022/10/11 03:09:47;;;;;;;1.33;1.23;;;;;;;19.05;47.36;95687.53;5099773;28;21028;-67
2022/10/11 03:12:14;;;;;;;2.17;0.90;;;;;;;18.71;48.11;95681.66;5104925;28;20566;-67
2022/10/11 03:14:41;;;;;;;1.87;1.77;;;;;;;18.79;47.85;95683.69;5109507;28;20436;-67
2022/10/11 03:17:08;;;;;;;1.73;1.63;;;;;;;18.36;49.14;95684.75;5095161;28;21010;-69
2022/10/11 03:19:55;;;;;;;2.37;2.17;;;;;;;18.88;47.84;95675.84;5097831;28;20444;-68
2022/10/11 03:22:22;;;;;;;0.70;0.70;;;;;;;18.50;48.02;95629.16;5110784;28;20868;-68
2022/10/11 03:24:49;;;;;;;1.13;1.07;;;;;;;18.92;47.90;95680.28;5106443;28;20469;-70
2022/10/11 03:27:15;;;;;;;1.23;1.20;;;;;;;18.90;47.70;95685.09;5088602;28;20433;-67
2022/10/11 03:29:42;;;;;;;0.47;0.47;;;;;;;18.83;48.23;95678.59;5093710;28;20448;-72
2022/10/11 03:32:09;;;;;;;2.53;2.33;;;;;;;18.91;47.59;95676.06;5097494;28;20448;-68
2022/10/11 03:34:36;;;;;;;6.63;2.00;;;;;;;19.08;47.62;95680.84;5102697;28;20556;-68
2022/10/11 03:37:03;;;;;;;0.53;0.53;;;;;;;19.02;47.94;95677.50;5098635;28;20535;-68
2022/10/11 03:39:30;;;;;;;0.30;0.30;;;;;;;18.89;47.94;95678.22;5103073;28;20561;-67
2022/10/11 03:41:56;;;;;;;1.57;1.47;;;;;;;18.98;47.76;95671.16;5100293;28;20433;-67
2022/10/11 03:44:23;;;;;;;1.83;1.27;;;;;;;18.76;48.39;95668.31;5111088;28;20467;-68
2022/10/11 03:46:50;;;;;;;0.50;0.50;;;;;;;18.92;48.07;95672.31;5113057;28;20555;-69
2022/10/11 03:49:17;;;;;;;1.60;1.47;;;;;;;18.91;47.87;95676.06;5094117;28;20459;-66
2022/10/11 03:51:44;;;;;;;1.53;1.43;;;;;;;18.68;49.06;95679.59;5092784;28;21208;-68
2022/10/11 03:54:11;;;;;;;0.97;0.97;;;;;;;18.73;49.27;95673.41;5111912;28;20561;-71
2022/10/11 03:56:37;;;;;;;1.47;0.93;;;;;;;18.73;48.98;95660.94;5099968;28;20429;-70
2022/10/11 03:59:04;;;;;;;0.50;0.50;;;;;;;19.15;47.70;95660.81;5092367;28;20449;-69
2022/10/11 04:01:36;;;;;;;0.70;0.70;;;;;;;18.85;48.58;95663.16;5098004;28;20462;-72
2022/10/11 04:04:04;;;;;;;1.90;1.80;;;;;;;18.85;48.36;95658.63;5097302;28;20495;-66
2022/10/11 04:06:31;;;;;;;3.43;2.50;;;;;;;19.04;48.38;95664.72;5112908;28;20500;-65
2022/10/11 04:08:58;;;;;;;1.67;1.53;;;;;;;19.00;48.20;95663.69;5111904;28;20816;-67
2022/10/11 04:11:25;;;;;;;2.60;1.50;;;;;;;18.60;49.30;95663.50;5092113;28;20429;-67
2022/10/11 04:13:52;;;;;;;0.53;0.53;;;;;;;18.66;49.15;95651.75;5105033;28;20472;-70
2022/10/11 04:16:19;;;;;;;1.23;1.17;;;;;;;18.89;48.94;95667.59;5097737;28;20476;-68
2022/10/11 04:18:46;;;;;;;0.77;0.77;;;;;;;18.98;48.32;95671.16;5100821;28;20835;-65
2022/10/11 04:21:13;;;;;;;1.13;1.10;;;;;;;18.92;48.31;95674.19;5094902;28;20523;-66
2022/10/11 04:23:40;;;;;;;0.80;0.80;;;;;;;18.88;48.54;95674.00;5111263;28;20440;-69
2022/10/11 04:26:07;;;;;;;0.53;0.53;;;;;;;18.87;48.73;95675.06;5112098;27;20434;-67
2022/10/11 04:28:35;;;;;;;0.63;0.63;;;;;;;18.92;48.75;95671.53;5111857;28;20442;-65
2022/10/11 04:31:03;;;;;;;4.40;1.90;;;;;;;18.96;48.64;95672.53;5110877;28;20440;-65
2022/10/11 04:33:30;;;;;;;1.07;1.07;;;;;;;18.96;48.32;95668.00;5098927;28;20967;-68
2022/10/11 04:35:57;;;;;;;6.47;1.33;;;;;;;19.04;48.51;95674.53;5090947;28;20476;-67
2022/10/11 04:38:24;;;;;;;0.40;0.40;;;;;;;18.94;48.50;95675.47;5102152;28;20482;-63
2022/10/11 04:40:51;;;;;;;1.30;1.23;;;;;;;18.56;49.51;95673.91;5106746;28;20480;-69
2022/10/11 04:43:18;;;;;;;1.50;1.40;;;;;;;18.31;50.24;95676.06;5090813;28;20819;-68
2022/10/11 04:45:45;;;;;;;1.97;1.87;;;;;;;18.65;49.24;95658.13;5101630;27;20521;-64
2022/10/11 04:48:12;;;;;;;0.77;0.77;;;;;;;18.70;49.24;95669.44;5101924;28;20526;-65
2022/10/11 04:50:39;;;;;;;1.53;1.43;;;;;;;18.91;48.64;95670.75;5102811;28;20440;-68
2022/10/11 04:53:06;;;;;;;0.77;0.77;;;;;;;18.89;48.62;95672.91;5090762;28;20469;-67
2022/10/11 04:55:33;;;;;;;7.87;2.67;;;;;;;18.95;48.57;95674.41;5103179;28;20460;-62
2022/10/11 04:58:01;;;;;;;19.33;4.33;;;;;;;19.08;48.83;95676.34;5101105;28;20440;-66
2022/10/11 05:00:28;;;;;;;2.43;2.23;;;;;;;18.87;49.21;95659.13;5094306;28;20448;-66
2022/10/11 05:02:54;;;;;;;1.03;1.03;;;;;;;19.05;49.17;95670.78;5090882;28;20517;-70
2022/10/11 05:05:21;;;;;;;2.73;1.93;;;;;;;19.01;49.40;95670.56;5090453;28;20504;-69
2022/10/11 05:07:48;;;;;;;2.20;2.00;;;;;;;18.96;49.43;95662.69;5087652;28;20436;-69
2022/10/11 05:10:15;;;;;;;7.73;2.80;;;;;;;19.07;49.40;95664.13;5090971;28;20444;-65
2022/10/11 05:12:42;;;;;;;3.53;3.23;;;;;;;18.82;49.83;95677.78;5090513;28;20437;-68
2022/10/11 05:15:09;;;;;;;3.37;2.60;;;;;;;19.23;48.85;95678.72;5101921;28;20443;-66
2022/10/11 05:17:36;;;;;;;6.93;2.93;;;;;;;19.06;49.15;95678.50;5106976;28;20881;-68
2022/10/11 05:20:03;;;;;;;2.23;2.00;;;;;;;19.08;49.25;95671.03;5089507;28;20480;-69
2022/10/11 05:22:30;;;;;;;1.83;1.73;;;;;;;19.19;49.11;95682.28;5103914;28;20547;-67
2022/10/11 05:24:56;;;;;;;1.27;1.27;;;;;;;19.01;49.59;95681.22;5090206;28;20437;-65
2022/10/11 05:27:23;;;;;;;3.03;2.27;;;;;;;18.77;50.03;95669.91;5090209;28;20543;-68
2022/10/11 05:29:50;;;;;;;7.47;3.20;;;;;;;19.14;49.82;95685.03;5089838;28;20449;-65
2022/10/11 05:32:17;;;;;;;9.17;5.90;;;;;;;19.19;49.43;95688.38;5102306;28;20539;-64
2022/10/11 05:34:44;;;;;;;9.73;7.87;;;;;;;19.38;49.11;95685.69;5096835;28;20468;-75
2022/10/11 05:37:11;;;;;;;3.23;3.03;;;;;;;19.21;49.44;95691.53;5107758;27;20437;-71
2022/10/11 05:39:37;;;;;;;1.23;1.10;;;;;;;19.26;49.36;95697.84;5095873;28;20471;-76
2022/10/11 05:42:04;;;;;;;2.07;1.97;;;;;;;19.15;49.80;95687.38;5093585;28;20520;-76
2022/10/11 05:44:35;;;;;;;3.03;2.23;;;;;;;18.76;50.25;95694.84;5115523;28;20460;-72
2022/10/11 05:47:02;;;;;;;1.33;1.30;;;;;;;18.86;50.71;95694.72;5098259;28;20533;-77
2022/10/11 05:49:29;;;;;;;4.27;1.80;;;;;;;18.90;50.56;95701.03;5115546;28;20539;-72
2022/10/11 05:51:56;;;;;;;1.13;1.13;;;;;;;19.00;50.66;95695.56;5095538;28;20522;-78
2022/10/11 05:54:23;;;;;;;1.37;1.27;;;;;;;19.32;49.76;95699.38;5100360;28;20550;-72
2022/10/11 05:56:49;;;;;;;12.33;1.70;;;;;;;19.19;50.11;95701.69;5096714;28;20541;-75
2022/10/11 05:59:16;;;;;;;2.57;2.03;;;;;;;18.98;50.56;95703.03;5100467;28;20787;-78
2022/10/11 06:01:44;;;;;;;1.43;1.23;;;;;;;19.27;50.27;95696.78;5108000;28;20449;-72
2022/10/11 06:04:11;;;;;;;0.80;0.77;;;;;;;19.00;50.60;95700.88;5101755;28;20428;-74
2022/10/11 06:06:39;;;;;;;1.63;1.53;;;;;;;19.20;50.53;95700.59;5106259;28;20834;-73
2022/10/11 06:09:06;;;;;;;1.57;1.47;;;;;;;19.15;50.54;95687.38;5099901;28;20986;-68
2022/10/11 06:11:33;;;;;;;1.60;1.50;;;;;;;19.33;50.43;95692.97;5112229;28;20440;-74
2022/10/11 06:14:01;;;;;;;2.43;2.23;;;;;;;19.10;50.81;95684.00;5097674;28;20526;-77
2022/10/11 06:16:29;;;;;;;1.97;1.87;;;;;;;18.74;51.47;95659.84;5092933;28;20437;-81
2022/10/11 06:18:56;;;;;;;2.40;2.27;;;;;;;19.06;50.60;95667.88;5107191;28;20432;-77
2022/10/11 06:21:23;;;;;;;5.27;3.07;;;;;;;19.18;50.66;95678.03;5105457;28;20465;-80
2022/10/11 06:23:51;;;;;;;2.23;1.97;;;;;;;19.03;50.93;95668.44;5104232;28;20452;-70
2022/10/11 06:26:26;;;;;;;0.67;0.67;;;;;;;18.80;51.23;95668.53;5091657;28;20495;-75
2022/10/11 06:28:52;;;;;;;0.60;0.60;;;;;;;19.04;50.79;95680.66;5105450;28;20531;-78
2022/10/11 06:31:19;;;;;;;0.90;0.90;;;;;;;18.90;50.76;95681.66;5097189;28;20433;-72
2022/10/11 06:33:47;;;;;;;1.23;1.23;;;;;;;19.58;49.56;95692.56;5101348;28;20516;-73
2022/10/11 06:36:15;;;;;;;3.57;2.07;;;;;;;19.62;49.43;95694.34;5105122;28;20433;-80
2022/10/11 06:38:43;;;;;;;1.57;1.47;;;;;;;19.90;48.56;95681.88;5100069;28;20502;-70
2022/10/11 06:41:12;;;;;;;2.90;1.57;;;;;;;19.94;48.43;95688.19;5093733;28;20504;-71
2022/10/11 06:43:39;;;;;;;1.47;1.37;;;;;;;19.76;48.68;95694.38;5103180;28;21109;-70
2022/10/11 06:46:06;;;;;;;0.20;0.20;;;;;;;19.70;48.47;95688.34;5095557;28;20523;-73
2022/10/11 06:48:37;;;;;;;1.37;1.27;;;;;;;19.84;48.58;95691.81;5109779;28;20513;-73
2022/10/11 06:51:04;;;;;;;1.43;0.80;;;;;;;19.62;49.07;95685.56;5099791;28;20858;-69
2022/10/11 06:53:31;;;;;;;1.20;1.10;;;;;;;19.77;48.54;95703.91;5103076;28;20562;-69
2022/10/11 06:56:03;;;;;;;2.30;1.03;;;;;;;19.70;48.90;95708.84;5088858;28;20541;-68
2022/10/11 06:58:31;;;;;;;0.97;0.97;;;;;;;19.50;48.90;95719.81;5089121;28;20437;-70
2022/10/11 07:01:06;;;;;;;1.67;1.57;;;;;;;19.66;48.85;95713.16;5109393;28;20460;-68
2022/10/11 07:03:34;;;;;;;2.30;1.33;;;;;;;19.76;48.58;95711.09;5095423;28;20437;-69
2022/10/11 07:06:09;;;;;;;3.70;2.50;;;;;;;19.41;49.29;95717.03;5095264;28;20439;-69
2022/10/11 07:08:37;;;;;;;1.70;1.60;;;;;;;19.77;48.64;95709.25;5108014;28;21006;-69
2022/10/11 07:11:10;;;;;;;1.20;1.10;;;;;;;19.88;48.58;95700.00;5109122;28;20535;-69
2022/10/11 07:13:38;;;;;;;1.40;1.30;;;;;;;19.75;48.45;95709.53;5109477;28;20464;-68
2022/10/11 07:16:08;;;;;;;0.77;0.77;;;;;;;19.94;48.26;95698.84;5103687;28;20535;-68
2022/10/11 07:18:38;;;;;;;0.60;0.60;;;;;;;19.89;48.03;95690.94;5092372;28;20449;-69
2022/10/11 07:21:09;;;;;;;1.43;1.33;;;;;;;19.72;48.59;95701.34;5097291;28;20440;-68
2022/10/11 07:23:36;;;;;;;0.73;0.73;;;;;;;19.58;48.79;95705.88;5102311;28;20437;-67
2022/10/11 07:26:05;;;;;;;1.20;1.10;;;;;;;19.85;48.11;95700.59;5110494;28;20440;-68
2022/10/11 07:28:34;;;;;;;0.23;0.23;;;;;;;19.97;48.20;95707.00;5103397;28;20528;-69
2022/10/11 07:31:05;;;;;;;3.03;2.07;;;;;;;19.94;48.21;95704.91;5106821;28;20436;-71
2022/10/11 07:33:32;;;;;;;2.40;1.07;;;;;;;19.94;47.96;95698.84;5101924;28;20448;-69
2022/10/11 07:35:59;;;;;;;0.90;0.87;;;;;;;20.02;48.03;95703.44;5113297;28;20489;-70
2022/10/11 07:38:26;;;;;;;1.67;1.57;;;;;;;20.24;47.77;95708.91;5106189;28;20506;-69
2022/10/11 07:40:53;;;;;;;3.20;2.20;;;;;;;20.34;47.49;95694.63;5100937;28;20432;-69
2022/10/11 07:43:20;;;;;;;0.93;0.93;;;;;;;19.93;47.88;95702.56;5103624;28;20491;-68
2022/10/11 07:45:52;;;;;;;1.27;1.17;;;;;;;19.83;48.01;95718.72;5096929;28;20440;-70
2022/10/11 07:48:19;;;;;;;2.77;1.77;;;;;;;19.86;48.40;95697.63;5112481;28;20436;-70
2022/10/11 07:50:46;;;;;;;0.43;0.43;;;;;;;19.89;48.42;95706.91;5095661;28;20482;-70
2022/10/11 07:53:13;;;;;;;2.83;1.80;;;;;;;20.17;48.12;95700.53;5105383;28;20440;-70
2022/10/11 07:55:41;;;;;;;0.83;0.83;;;;;;;20.24;47.68;95708.91;5112407;28;20470;-70
2022/10/11 07:58:12;;;;;;;0.37;0.37;;;;;;;19.86;48.18;95707.47;5112369;28;20482;-69
2022/10/11 08:00:41;;;;;;;1.90;0.90;;;;;;;20.05;47.89;95700.22;5112357;28;20545;-69
2022/10/11 08:03:09;;;;;;;5.67;2.07;;;;;;;20.58;47.19;95703.97;5100091;28;20980;-68
2022/10/11 08:05:37;;;;;;;1.20;1.20;;;;;;;20.84;46.23;95696.22;5106104;28;20991;-67
2022/10/11 08:08:04;;;;;;;0.47;0.47;;;;;;;20.88;45.99;95687.34;5101383;28;20912;-69
2022/10/11 08:10:37;;;;;;;9.53;1.53;;;;;;;20.83;45.86;95699.97;5097884;28;20465;-70
2022/10/11 08:13:04;;;;;;;1.10;1.10;;;;;;;20.34;46.58;95703.41;5104152;28;20440;-69
2022/10/11 08:15:31;;;;;;;1.23;1.23;;;;;;;20.28;46.91;95703.78;5106124;28;20479;-69
2022/10/11 08:17:58;;;;;;;2.00;1.80;;;;;;;20.32;46.64;95720.75;5105425;28;20444;-68
2022/10/11 08:20:25;;;;;;;1.10;1.10;;;;;;;20.52;46.52;95713.16;5104626;28;20531;-69
2022/10/11 08:22:54;;;;;;;2.10;1.90;;;;;;;20.31;46.81;95709.31;5111968;28;20513;-68
2022/10/11 08:25:20;;;;;;;1.80;1.50;;;;;;;20.32;47.23;95721.53;5112325;28;20532;-69
2022/10/11 08:27:47;;;;;;;1.03;1.03;;;;;;;20.45;46.84;95720.75;5111498;28;20478;-69
2022/10/11 08:30:14;;;;;;;1.20;1.13;;;;;;;20.52;46.37;95715.81;5109772;28;20535;-70
2022/10/11 08:32:41;;;;;;;0.77;0.77;;;;;;;20.46;46.82;95724.97;5097069;28;20535;-70
2022/10/11 08:35:08;;;;;;;9.17;2.97;;;;;;;20.47;46.50;95729.25;5103943;28;20476;-70
2022/10/11 08:37:35;;;;;;;6.90;1.47;;;;;;;20.04;47.37;95709.28;5105353;28;20956;-71
2022/10/11 08:40:02;;;;;;;0.87;0.87;;;;;;;20.42;46.99;95715.25;5105427;28;20793;-69
2022/10/11 08:42:35;;;;;;;4.70;2.37;;;;;;;20.56;46.60;95711.47;5091117;28;20985;-69
2022/10/11 08:45:09;;;;;;;3.33;2.60;;;;;;;20.37;47.01;95702.00;5091135;28;20460;-69
2022/10/11 08:47:43;;;;;;;1.07;1.07;;;;;;;20.77;46.31;95707.28;5091178;28;20451;-69
2022/10/11 08:50:18;;;;;;;0.60;0.60;;;;;;;20.79;46.43;95707.78;5091188;28;20451;-69
2022/10/11 08:53:01;;;;;;;1.17;0.97;;;;;;;20.54;47.21;95713.66;5091076;28;20520;-70
2022/10/11 08:55:33;;;;;;;12.80;1.40;;;;;;;20.38;47.14;95717.72;5108502;28;20487;-70
2022/10/11 08:58:01;;;;;;;1.63;1.53;;;;;;;20.82;46.09;95709.84;5110995;28;20445;-69
2022/10/11 09:00:31;;;;;;;1.07;1.07;;;;;;;20.78;46.79;95713.41;5111603;28;20436;-68
2022/10/11 09:03:09;;;;;;;1.73;1.63;;;;;;;21.17;45.96;95719.75;5112782;28;20444;-69
2022/10/11 09:06:02;;;;;;;2.13;1.90;;;;;;;21.11;45.44;95701.50;5093470;28;21081;-69
2022/10/11 09:08:55;;;;;;;3.07;1.30;;;;;;;21.10;45.71;95698.06;5090100;28;20477;-70
2022/10/11 09:11:56;;;;;;;0.37;0.37;;;;;;;20.93;45.68;95702.41;5090611;28;20445;-69
2022/10/11 09:14:45;;;;;;;0.40;0.40;;;;;;;21.23;45.39;95692.97;5104767;28;20471;-69
2022/10/11 09:17:54;;;;;;;0.83;0.77;;;;;;;21.40;44.23;95693.09;5104511;28;20452;-70
2022/10/11 09:20:39;;;;;;;0.83;0.83;;;;;;;21.58;44.56;95689.44;5111164;28;20485;-69
2022/10/11 09:23:12;;;;;;;1.53;1.43;;;;;;;21.61;43.13;95688.81;5110712;28;20436;-69
2022/10/11 09:26:24;;;;;;;0.67;0.67;;;;;;;21.44;44.04;95699.41;5110780;28;21034;-70
2022/10/11 09:29:11;;;;;;;2.80;1.50;;;;;;;21.21;43.84;95673.81;5092514;28;20453;-69
2022/10/11 09:31:38;;;;;;;0.97;0.97;;;;;;;21.20;44.02;95693.56;5097614;28;20448;-71
2022/10/11 09:34:10;;;;;;;1.80;1.27;;;;;;;21.41;44.05;95687.44;5096663;28;20433;-69
2022/10/11 09:36:50;;;;;;;2.20;1.13;;;;;;;21.66;43.55;95702.06;5090029;28;20502;-69
2022/10/11 09:39:30;;;;;;;0.63;0.63;;;;;;;21.63;43.15;95697.31;5104617;28;20439;-70
2022/10/11 09:42:10;;;;;;;2.07;0.77;;;;;;;21.40;44.02;95704.56;5096197;28;20445;-68
2022/10/11 09:44:48;;;;;;;4.07;1.70;;;;;;;21.63;43.80;95691.97;5097563;28;20551;-69
2022/10/11 09:47:22;;;;;;;1.60;1.13;;;;;;;21.51;44.55;95689.09;5109004;28;20439;-69
2022/10/11 09:49:58;;;;;;;1.27;0.83;;;;;;;21.76;44.03;95685.78;5098746;28;20512;-69
2022/10/11 09:52:25;;;;;;;0.67;0.67;;;;;;;21.71;44.15;95694.72;5096536;28;20567;-70
2022/10/11 09:55:32;;;;;;;2.50;1.43;;;;;;;21.51;44.56;95679.22;5110406;28;20478;-69
2022/10/11 09:57:59;;;;;;;0.53;0.53;;;;;;;21.35;45.07;95685.22;5100160;28;20951;-69
2022/10/11 10:00:31;;;;;;;0.70;0.70;;;;;;;21.99;43.65;95673.97;5095790;28;20875;-68
2022/10/11 10:03:01;;;;;;;2.17;1.97;;;;;;;22.34;43.48;95680.22;5100695;28;20532;-69
2022/10/11 10:05:35;;;;;;;0.80;0.80;;;;;;;22.45;42.74;95668.94;5089566;28;20430;-69
2022/10/11 10:08:23;;;;;;;1.57;1.47;;;;;;;22.10;43.31;95675.28;5098590;28;20973;-69
2022/10/11 10:11:02;;;;;;;0.50;0.50;;;;;;;22.41;42.16;95659.97;5109923;28;20435;-69
2022/10/11 10:13:42;;;;;;;0.63;0.63;;;;;;;22.35;42.63;95661.25;5097995;28;20494;-68
2022/10/11 10:16:26;;;;;;;1.73;0.97;;;;;;;21.93;43.45;95667.22;5103817;28;21097;-69
2022/10/11 10:19:00;;;;;;;0.77;0.77;;;;;;;22.38;43.13;95655.25;5103878;28;20440;-71
2022/10/11 10:21:33;;;;;;;3.77;1.07;;;;;;;22.52;42.78;95660.47;5102682;28;20444;-69
2022/10/11 10:24:16;;;;;;;0.63;0.63;;;;;;;21.95;42.52;95662.38;5103303;28;20448;-69
2022/10/11 10:27:16;;;;;;;0.43;0.43;;;;;;;21.73;43.34;95659.72;5098226;28;20497;-69
2022/10/11 10:30:03;;;;;;;2.50;1.27;;;;;;;22.39;42.89;95651.47;5109154;28;20440;-69
2022/10/11 10:33:03;;;;;;;0.70;0.70;;;;;;;22.37;42.74;95653.69;5095096;28;21024;-69
2022/10/11 10:36:16;;;;;;;2.40;2.20;;;;;;;23.25;41.20;95648.91;5098453;28;21056;-69
2022/10/11 10:38:58;;;;;;;1.83;1.73;;;;;;;22.86;42.10;95650.63;5075486;28;20491;-68
2022/10/11 10:41:25;;;;;;;2.60;2.13;;;;;;;22.81;41.51;95640.09;5086320;28;20451;-68
2022/10/11 10:43:56;;;;;;;1.63;1.47;;;;;;;23.12;41.03;95648.75;5098745;28;20318;-68
2022/10/11 10:46:54;;;;;;;0.47;0.47;;;;;;;22.82;41.68;95643.56;5089251;28;20457;-69
2022/10/11 10:49:41;;;;;;;1.57;1.43;;;;;;;22.50;42.13;95642.09;5107744;28;20194;-68
2022/10/11 10:52:53;;;;;;;3.53;1.03;;;;;;;23.04;40.06;95640.75;5088913;28;20460;-69
2022/10/11 10:55:36;;;;;;;1.30;1.20;;;;;;;22.40;41.78;95637.06;5090688;28;20215;-68
2022/10/11 10:58:22;;;;;;;2.50;2.30;;;;;;;23.39;41.36;95631.63;5098292;28;20528;-68
2022/10/11 11:00:54;;;;;;;10.93;2.67;;;;;;;23.79;40.52;95618.75;5089138;28;20806;-68
2022/10/11 11:03:31;;;;;;;3.10;1.27;;;;;;;23.98;39.77;95621.78;5101358;28;20202;-69
2022/10/11 11:06:01;;;;;;;0.67;0.67;;;;;;;24.29;39.41;95611.59;5108904;28;20201;-67
2022/10/11 11:09:08;;;;;;;2.73;1.40;;;;;;;24.28;38.99;95604.66;5109180;28;20289;-69
2022/10/11 11:12:13;;;;;;;1.30;1.17;;;;;;;23.57;39.99;95618.97;5088802;28;20202;-70
2022/10/11 11:14:52;;;;;;;2.93;1.97;;;;;;;23.81;39.07;95611.19;5073112;28;20767;-67
2022/10/11 11:17:33;;;;;;;1.07;1.07;;;;;;;24.21;38.80;95615.13;5084570;28;20199;-69
2022/10/11 11:20:03;;;;;;;1.60;1.37;;;;;;;23.18;38.96;95614.63;5090396;28;20198;-68
2022/10/11 11:22:35;;;;;;;1.77;1.57;;;;;;;23.63;39.72;95613.13;5092496;28;20218;-69
2022/10/11 11:25:22;;;;;;;0.97;0.97;;;;;;;24.16;39.01;95601.88;5088489;28;20202;-67
2022/10/11 11:27:52;;;;;;;0.80;0.80;;;;;;;24.20;38.98;95597.47;5088488;28;20203;-68
2022/10/11 11:30:53;;;;;;;2.60;2.00;;;;;;;23.75;38.79;95601.75;5099046;28;20696;-68
2022/10/11 11:34:17;;;;;;;3.03;2.00;;;;;;;24.38;38.38;95598.91;5095618;28;20231;-69
2022/10/11 11:36:48;;;;;;;0.63;0.63;;;;;;;23.38;38.61;95602.47;5078043;28;20222;-67
2022/10/11 11:39:22;;;;;;;1.07;0.83;;;;;;;23.77;39.33;95604.88;5101406;28;20612;-68
2022/10/11 11:41:59;;;;;;;1.20;1.13;;;;;;;23.93;38.97;95598.69;5088368;28;20197;-68
2022/10/11 11:44:36;;;;;;;1.10;1.07;;;;;;;23.80;38.77;95596.22;5086876;28;20656;-69
2022/10/11 11:47:28;;;;;;;0.93;0.93;;;;;;;23.77;38.52;95578.91;5089146;28;20721;-69
2022/10/11 11:50:22;;;;;;;1.80;1.67;;;;;;;24.12;38.06;95578.78;5098169;28;20197;-68
2022/10/11 11:53:03;;;;;;;1.10;1.07;;;;;;;23.55;38.79;95584.50;5098060;28;20856;-68
2022/10/11 11:55:44;;;;;;;0.30;0.30;;;;;;;23.57;39.27;95584.97;5108373;28;20206;-69
2022/10/11 11:58:49;;;;;;;1.17;0.90;;;;;;;22.91;39.52;95589.03;5108960;28;20554;-69
2022/10/11 12:01:38;;;;;;;3.43;1.87;;;;;;;23.06;39.97;95587.75;5098082;28;20673;-69
2022/10/11 12:04:36;;;;;;;8.60;1.70;;;;;;;23.67;39.33;95584.63;5090306;28;20200;-70